Time;durP1;ratioP1;P1;durP2;ratioP2;P2;SDS_P1;SDS_P2;PMS_P1;PMS_P2;Temp;Humidity;BMP_temperature;BMP_pressure;BME280_temperature;BME280_humidity;BME280_pressure;Samples;Min_cycle;Max_cycle;Signal;HPM_P1;HPM_P2
2022/11/07 00:02:03;;;;;;;18.75;13.38;;;;;;;6.19;100.00;96741.31;5053977;28;20028;-64
2022/11/07 00:04:30;;;;;;;19.48;13.60;;;;;;;6.19;100.00;96742.09;5052986;28;20024;-65
2022/11/07 00:06:56;;;;;;;18.98;13.48;;;;;;;6.23;100.00;96734.88;5052067;28;20097;-65
2022/11/07 00:09:21;;;;;;;17.25;12.48;;;;;;;6.25;100.00;96742.72;5050731;28;20021;-65
2022/11/07 00:11:47;;;;;;;17.27;12.10;;;;;;;6.29;100.00;96738.16;5050346;28;20024;-66
2022/11/07 00:14:14;;;;;;;16.08;11.50;;;;;;;6.18;100.00;96743.25;5049497;28;20076;-66
2022/11/07 00:16:40;;;;;;;17.73;12.68;;;;;;;6.05;100.00;96745.16;5049826;28;20032;-66
2022/11/07 00:19:05;;;;;;;15.95;11.48;;;;;;;5.98;100.00;96742.19;5047497;28;20040;-66
2022/11/07 00:21:31;;;;;;;16.83;11.93;;;;;;;5.93;100.00;96747.78;5029033;28;20479;-66
2022/11/07 00:23:57;;;;;;;17.33;12.38;;;;;;;5.80;100.00;96752.41;5048203;28;20033;-65
2022/11/07 00:26:22;;;;;;;20.73;12.98;;;;;;;5.77;100.00;96752.28;5036174;28;20033;-65
2022/11/07 00:28:48;;;;;;;19.70;14.15;;;;;;;5.69;100.00;96754.72;5048125;28;20029;-65
2022/11/07 00:31:14;;;;;;;21.88;14.57;;;;;;;5.53;100.00;96745.59;5048269;28;20029;-65
2022/11/07 00:33:40;;;;;;;23.08;15.80;;;;;;;5.42;100.00;96750.66;5047634;28;20056;-65
2022/11/07 00:36:07;;;;;;;23.40;15.80;;;;;;;5.32;100.00;96757.25;5046567;28;20039;-66
2022/11/07 00:38:32;;;;;;;23.52;16.40;;;;;;;5.27;100.00;96748.50;5049941;28;20630;-66
2022/11/07 00:40:59;;;;;;;24.88;15.57;;;;;;;5.25;100.00;96758.91;5049535;28;20104;-66
2022/11/07 00:43:26;;;;;;;27.73;18.05;;;;;;;5.21;100.00;96764.22;5031332;28;20040;-65
2022/11/07 00:45:51;;;;;;;20.48;15.02;;;;;;;5.20;100.00;96764.53;5049636;28;20028;-66
2022/11/07 00:48:17;;;;;;;22.85;15.07;;;;;;;5.21;100.00;96769.63;5049995;28;20033;-66
2022/11/07 00:50:43;;;;;;;19.10;14.35;;;;;;;5.24;100.00;96777.13;5051462;28;20036;-65
2022/11/07 00:53:08;;;;;;;19.70;14.82;;;;;;;5.25;100.00;96770.56;5033169;28;20135;-66
2022/11/07 00:55:33;;;;;;;20.83;14.63;;;;;;;5.33;100.00;96763.47;5052096;28;20385;-66
2022/11/07 00:57:59;;;;;;;21.27;14.63;;;;;;;5.36;100.00;96770.97;5052666;28;20029;-66
2022/11/07 01:00:24;;;;;;;22.17;14.68;;;;;;;5.22;100.00;96776.69;5052816;28;20033;-66
2022/11/07 01:05:09;;;;;;;22.50;14.38;;;;;;;5.14;100.00;96778.31;5051256;28;20037;-66
2022/11/07 01:05:35;;;;;;;21.58;13.73;;;;;;;4.98;100.00;96774.56;5050868;28;20094;-66
2022/11/07 01:08:01;;;;;;;23.60;13.75;;;;;;;4.61;100.00;96774.28;5051641;28;20028;-64
2022/11/07 01:10:26;;;;;;;20.75;14.13;;;;;;;4.54;100.00;96772.06;5054623;28;20040;-65
2022/11/07 01:12:52;;;;;;;20.45;12.57;;;;;;;4.53;100.00;96778.59;5062310;28;20036;-65
2022/11/07 01:15:17;;;;;;;15.32;11.52;;;;;;;4.63;100.00;96771.22;5056734;28;20029;-65
2022/11/07 01:17:42;;;;;;;18.60;13.30;;;;;;;4.72;100.00;96777.44;5051804;28;20029;-65
2022/11/07 01:20:09;;;;;;;17.80;11.93;;;;;;;4.77;100.00;96782.66;5052531;28;20044;-65
2022/11/07 01:22:34;;;;;;;17.63;12.98;;;;;;;4.91;100.00;96777.78;5051018;28;20023;-64
2022/11/07 01:24:59;;;;;;;21.17;15.13;;;;;;;4.77;100.00;96783.47;5034255;28;20033;-65
2022/11/07 01:27:25;;;;;;;24.27;15.90;;;;;;;4.69;100.00;96778.06;5051581;28;20123;-65
2022/11/07 01:29:50;;;;;;;25.45;16.35;;;;;;;4.58;100.00;96783.84;5052143;28;20427;-65
2022/11/07 01:32:15;;;;;;;24.67;15.88;;;;;;;4.53;100.00;96783.25;5051725;28;20025;-65
2022/11/07 01:34:41;;;;;;;23.30;15.70;;;;;;;4.53;100.00;96781.31;5052793;28;20086;-65
2022/11/07 01:37:06;;;;;;;25.58;16.55;;;;;;;4.56;100.00;96775.25;5051460;28;20039;-65
2022/11/07 01:39:32;;;;;;;25.00;15.52;;;;;;;4.69;100.00;96776.16;5052772;28;20045;-65
2022/11/07 01:41:58;;;;;;;19.65;13.77;;;;;;;4.72;100.00;96780.16;5034135;28;20048;-65
2022/11/07 01:44:23;;;;;;;21.13;12.73;;;;;;;4.75;100.00;96768.63;5052526;28;20068;-66
2022/11/07 01:46:49;;;;;;;18.30;13.00;;;;;;;4.73;100.00;96781.72;5058258;28;20044;-66
2022/11/07 01:49:19;;;;;;;21.88;14.68;;;;;;;4.75;100.00;96779.47;5059011;28;20042;-66
2022/11/07 01:51:44;;;;;;;;;;;;;;;4.82;100.00;96778.97;5040828;28;20079;-66
2022/11/07 01:54:12;;;;;;;21.40;13.63;;;;;;;5.05;100.00;96780.28;5039517;28;19908;-66
2022/11/07 01:56:40;;;;;;;16.73;11.65;;;;;;;5.10;100.00;96782.00;5037839;28;20034;-66
2022/11/07 01:59:09;;;;;;;20.15;12.65;;;;;;;5.07;100.00;96772.59;5049965;28;20041;-66
2022/11/07 02:01:35;;;;;;;16.92;11.73;;;;;;;5.04;100.00;96775.97;5052021;28;20033;-67
2022/11/07 02:04:01;;;;;;;17.65;12.20;;;;;;;5.02;100.00;96775.50;5052308;28;20037;-67
2022/11/07 02:06:36;;;;;;;16.80;12.35;;;;;;;5.02;100.00;96780.13;5051524;28;20029;-67
2022/11/07 02:09:02;;;;;;;16.83;11.32;;;;;;;5.12;100.00;96785.97;5050176;28;20039;-65
2022/11/07 02:11:28;;;;;;;19.38;12.23;;;;;;;5.28;100.00;96780.00;5052171;28;20092;-66
2022/11/07 02:13:53;;;;;;;17.38;12.32;;;;;;;5.33;100.00;96777.88;5052049;28;20107;-66
2022/11/07 02:16:19;;;;;;;15.88;11.35;;;;;;;5.29;100.00;96768.78;5051273;28;20064;-66
2022/11/07 02:18:46;;;;;;;18.67;12.02;;;;;;;5.28;100.00;96775.34;5050829;28;20515;-66
2022/11/07 02:21:23;;;;;;;17.42;12.20;;;;;;;5.15;100.00;96768.25;5050916;28;20120;-65
2022/11/07 02:23:57;;;;;;;23.48;13.48;;;;;;;5.13;100.00;96756.91;5044397;28;20104;-65
2022/11/07 02:26:24;;;;;;;21.25;15.10;;;;;;;5.15;100.00;96754.69;5051019;28;20029;-65
2022/11/07 02:28:51;;;;;;;23.35;16.85;;;;;;;5.21;100.00;96766.13;5053647;28;20100;-64
2022/11/07 02:31:17;;;;;;;34.38;16.98;;;;;;;5.21;100.00;96763.41;5061708;28;20061;-64
2022/11/07 02:33:42;;;;;;;26.00;15.52;;;;;;;5.20;100.00;96756.38;5062315;28;20033;-65
2022/11/07 02:36:14;;;;;;;21.63;14.98;;;;;;;5.16;100.00;96754.31;5054175;28;20055;-63
2022/11/07 02:38:39;;;;;;;23.10;16.17;;;;;;;5.14;100.00;96753.06;5031594;28;20044;-64
2022/11/07 02:41:15;;;;;;;23.10;16.20;;;;;;;5.14;100.00;96747.66;5033396;28;20401;-64
2022/11/07 02:43:47;;;;;;;22.17;13.70;;;;;;;5.14;100.00;96751.16;5051550;28;20048;-63
2022/11/07 02:46:13;;;;;;;20.75;13.50;;;;;;;5.13;100.00;96751.47;5049443;28;20493;-64
2022/11/07 02:48:49;;;;;;;19.13;13.85;;;;;;;5.10;100.00;96746.72;5051280;28;20512;-65
2022/11/07 02:51:14;;;;;;;20.70;15.15;;;;;;;5.05;100.00;96744.19;5051338;28;20470;-65
2022/11/07 02:53:40;;;;;;;20.60;13.98;;;;;;;5.03;100.00;96741.81;5049538;28;20111;-65
2022/11/07 02:56:06;;;;;;;21.83;14.18;;;;;;;4.97;100.00;96743.91;5050700;28;20025;-64
2022/11/07 02:58:32;;;;;;;19.83;14.25;;;;;;;4.92;100.00;96740.59;5032445;28;20033;-65
2022/11/07 03:01:01;;;;;;;23.17;14.73;;;;;;;4.88;100.00;96745.91;5051644;28;20389;-65
2022/11/07 03:03:29;;;;;;;18.23;12.20;;;;;;;4.98;100.00;96745.50;5067599;28;20389;-66
2022/11/07 03:05:54;;;;;;;19.10;12.93;;;;;;;5.06;100.00;96748.47;5057674;28;20033;-66
2022/11/07 03:08:20;;;;;;;18.70;13.10;;;;;;;4.91;100.00;96747.16;5074011;28;20166;-66
2022/11/07 03:10:45;;;;;;;19.80;12.70;;;;;;;4.77;100.00;96742.75;5054367;28;20120;-65
2022/11/07 03:13:11;;;;;;;17.55;11.63;;;;;;;4.77;100.00;96736.53;5049414;28;20043;-66
2022/11/07 03:15:36;;;;;;;17.35;12.07;;;;;;;4.76;100.00;96737.66;5050066;28;20033;-65
2022/11/07 03:18:01;;;;;;;15.00;11.07;;;;;;;4.73;100.00;96749.16;5051794;28;20024;-64
2022/11/07 03:20:27;;;;;;;17.20;11.98;;;;;;;4.89;100.00;96747.47;5052763;28;20052;-65
2022/11/07 03:22:52;;;;;;;16.20;11.43;;;;;;;4.97;100.00;96754.78;5051755;28;20037;-65
2022/11/07 03:25:18;;;;;;;14.80;10.50;;;;;;;4.84;100.00;96744.94;5032916;28;20029;-65
2022/11/07 03:27:47;;;;;;;19.58;12.07;;;;;;;4.65;100.00;96750.00;5050680;28;20040;-65
2022/11/07 03:30:14;;;;;;;17.52;12.05;;;;;;;4.52;100.00;96749.91;5050698;28;20495;-66
2022/11/07 03:32:39;;;;;;;18.67;12.55;;;;;;;4.44;100.00;96758.84;5049635;28;20756;-65
2022/11/07 03:35:05;;;;;;;19.30;12.88;;;;;;;4.36;100.00;96755.06;5050486;28;20036;-66
2022/11/07 03:37:31;;;;;;;19.27;13.40;;;;;;;4.33;100.00;96761.13;5048555;28;20040;-65
2022/11/07 03:39:56;;;;;;;20.92;13.23;;;;;;;4.27;100.00;96769.75;5050706;28;20033;-66
2022/11/07 03:42:22;;;;;;;19.48;12.80;;;;;;;4.29;100.00;96770.25;5050336;28;20021;-65
2022/11/07 03:44:47;;;;;;;19.98;11.85;;;;;;;4.30;100.00;96772.63;5049924;28;20051;-65
2022/11/07 03:47:12;;;;;;;17.38;12.13;;;;;;;4.36;100.00;96775.97;5041183;28;20111;-65
2022/11/07 03:49:38;;;;;;;19.52;12.02;;;;;;;4.35;100.00;96777.09;5049491;28;20105;-65
2022/11/07 03:52:03;;;;;;;16.80;11.23;;;;;;;4.42;100.00;96788.22;5050217;28;20053;-65
2022/11/07 03:54:29;;;;;;;15.32;11.02;;;;;;;4.40;100.00;96793.97;5049500;28;20040;-65
2022/11/07 03:56:54;;;;;;;17.30;11.35;;;;;;;4.40;100.00;96791.25;5049652;28;20025;-65
2022/11/07 03:59:20;;;;;;;17.10;11.43;;;;;;;4.33;100.00;96801.03;5050392;28;20397;-65
2022/11/07 04:01:45;;;;;;;16.30;11.23;;;;;;;4.28;100.00;96796.56;5050448;28;20477;-65
2022/11/07 04:04:11;;;;;;;14.90;11.10;;;;;;;4.28;100.00;96790.34;5058580;28;20037;-66
2022/11/07 04:06:37;;;;;;;17.90;11.70;;;;;;;4.27;100.00;96794.16;5059069;28;20033;-65
2022/11/07 04:09:03;;;;;;;15.65;10.82;;;;;;;4.20;100.00;96794.69;5050794;28;20029;-65
2022/11/07 04:19:39;;;;;;;11.32;8.30;;;;;;;4.26;100.00;96803.44;5049935;28;20087;-64
2022/11/07 04:22:05;;;;;;;11.30;7.72;;;;;;;4.18;100.00;96805.84;5050079;28;20033;-64
2022/11/07 04:24:30;;;;;;;10.35;7.93;;;;;;;4.14;100.00;96801.38;5033927;28;20035;-66
2022/11/07 04:29:40;;;;;;;10.85;7.43;;;;;;;4.06;100.00;96802.19;5057327;28;20024;-65
2022/11/07 04:32:05;;;;;;;11.25;8.05;;;;;;;4.08;100.00;96803.47;5049932;28;20453;-64
2022/11/07 04:34:30;;;;;;;11.45;7.78;;;;;;;4.04;100.00;96801.72;5061505;28;20036;-65
2022/11/07 04:36:56;;;;;;;11.05;7.45;;;;;;;3.92;100.00;96795.03;5055327;28;20068;-62
2022/11/07 04:39:21;;;;;;;12.43;7.28;;;;;;;3.80;100.00;96792.19;5053746;28;20113;-64
2022/11/07 04:41:47;;;;;;;11.40;7.72;;;;;;;3.83;100.00;96794.25;5053611;28;20029;-63
2022/11/07 04:44:12;;;;;;;10.80;7.80;;;;;;;3.80;100.00;96794.91;5053793;28;20686;-63
2022/11/07 04:46:37;;;;;;;10.88;7.90;;;;;;;3.80;100.00;96795.69;5052651;28;20439;-63
2022/11/07 04:49:03;;;;;;;11.18;8.30;;;;;;;3.82;100.00;96798.09;5051721;28;20037;-65
2022/11/07 04:51:28;;;;;;;10.85;7.72;;;;;;;3.77;100.00;96799.03;5053596;28;20021;-65
2022/11/07 04:53:54;;;;;;;11.93;8.23;;;;;;;3.81;100.00;96799.19;5053605;28;20037;-65
2022/11/07 04:56:19;;;;;;;14.38;8.10;;;;;;;3.81;100.00;96797.25;5052716;28;20040;-65
2022/11/07 04:58:44;;;;;;;10.02;7.43;;;;;;;3.79;100.00;96799.50;5052467;28;20501;-65
2022/11/07 05:01:10;;;;;;;9.55;6.85;;;;;;;3.77;100.00;96798.25;5053318;28;20029;-65
2022/11/07 05:03:35;;;;;;;12.60;9.15;;;;;;;3.72;100.00;96807.31;5053409;28;20427;-66
2022/11/07 05:06:03;;;;;;;14.73;8.40;;;;;;;3.71;100.00;96804.91;5053417;28;20033;-66
2022/11/07 05:08:29;;;;;;;11.45;8.00;;;;;;;3.70;100.00;96806.06;5055447;28;20040;-66
2022/11/07 05:10:54;;;;;;;12.25;8.35;;;;;;;3.59;100.00;96806.38;5053145;28;20025;-65
2022/11/07 05:13:20;;;;;;;10.20;7.30;;;;;;;3.50;100.00;96800.16;5053477;28;20033;-66
2022/11/07 05:15:46;;;;;;;10.77;8.15;;;;;;;3.53;100.00;96815.78;5052593;28;20033;-66
2022/11/07 05:18:11;;;;;;;13.13;9.10;;;;;;;3.53;100.00;96814.97;5031031;28;20048;-65
2022/11/07 05:20:38;;;;;;;13.05;8.38;;;;;;;3.51;100.00;96812.59;5052017;28;20033;-66
2022/11/07 05:23:20;;;;;;;15.10;9.88;;;;;;;3.44;100.00;96809.56;5051503;28;20032;-66
2022/11/07 05:25:51;;;;;;;16.65;10.05;;;;;;;3.41;100.00;96818.31;5044725;28;20037;-66
2022/11/07 05:28:21;;;;;;;15.35;9.98;;;;;;;3.33;100.00;96811.78;5051631;28;20051;-64
2022/11/07 05:30:47;;;;;;;14.73;8.88;;;;;;;3.27;100.00;96817.66;5045069;28;20035;-64
2022/11/07 05:33:14;;;;;;;11.85;8.60;;;;;;;3.30;100.00;96827.84;5052858;28;20033;-65
2022/11/07 05:35:40;;;;;;;10.65;7.97;;;;;;;3.36;100.00;96821.16;5051808;28;20041;-64
2022/11/07 05:38:06;;;;;;;14.88;9.13;;;;;;;3.45;100.00;96822.75;5051334;28;20102;-64
2022/11/07 05:40:34;;;;;;;11.57;7.95;;;;;;;3.32;100.00;96814.78;5052702;28;20048;-64
2022/11/07 05:43:11;;;;;;;11.40;8.18;;;;;;;3.07;100.00;96822.53;5053042;28;20036;-65
2022/11/07 05:45:38;;;;;;;11.38;7.55;;;;;;;3.02;100.00;96822.69;5049719;28;20033;-64
2022/11/07 05:48:13;;;;;;;14.10;9.02;;;;;;;2.84;100.00;96822.63;5052239;28;20043;-65
2022/11/07 05:50:39;;;;;;;14.63;8.45;;;;;;;2.87;100.00;96822.00;5052535;28;20485;-64
2022/11/07 05:53:05;;;;;;;13.88;8.30;;;;;;;2.96;100.00;96827.44;5051645;28;20041;-63
2022/11/07 05:55:30;;;;;;;12.77;8.75;;;;;;;3.03;100.00;96824.28;5051082;28;20047;-65
2022/11/07 05:57:56;;;;;;;12.85;8.30;;;;;;;3.17;100.00;96826.84;5052130;28;20040;-66
2022/11/07 06:00:22;;;;;;;12.95;8.57;;;;;;;3.23;100.00;96823.69;5050671;28;20048;-66
2022/11/07 06:02:55;;;;;;;12.07;7.88;;;;;;;3.22;100.00;96829.41;5051130;28;20363;-65
2022/11/07 06:05:21;;;;;;;12.73;8.05;;;;;;;3.29;100.00;96832.44;5053020;28;20045;-65
2022/11/07 06:07:46;;;;;;;13.40;8.95;;;;;;;3.34;100.00;96835.00;5066618;28;20389;-64
2022/11/07 06:10:11;;;;;;;11.75;8.27;;;;;;;3.36;100.00;96840.13;5052485;28;20033;-65
2022/11/07 06:12:37;;;;;;;12.75;8.48;;;;;;;3.30;100.00;96831.34;5042795;28;20025;-65
2022/11/07 06:15:03;;;;;;;12.68;8.20;;;;;;;3.26;100.00;96841.22;5065837;28;20031;-65
2022/11/07 06:17:28;;;;;;;12.82;7.93;;;;;;;3.28;100.00;96835.47;5059607;28;20056;-65
2022/11/07 06:19:53;;;;;;;10.38;7.63;;;;;;;3.17;100.00;96840.38;5034549;28;20039;-66
2022/11/07 06:22:19;;;;;;;12.48;8.35;;;;;;;2.66;100.00;96842.59;5051440;28;20025;-66
2022/11/07 06:24:44;;;;;;;16.52;8.27;;;;;;;2.56;100.00;96848.31;5051828;28;20074;-66
2022/11/07 06:27:10;;;;;;;15.55;8.93;;;;;;;2.47;100.00;96849.03;5051298;28;20033;-66
2022/11/07 06:29:35;;;;;;;11.80;7.90;;;;;;;2.58;100.00;96857.69;5052139;28;20650;-66
2022/11/07 06:32:00;;;;;;;12.60;9.40;;;;;;;2.83;100.00;96848.09;5051927;28;20535;-66
2022/11/07 06:34:26;;;;;;;13.93;8.93;;;;;;;2.78;100.00;96848.22;5051190;28;20033;-65
2022/11/07 06:36:55;;;;;;;15.45;9.50;;;;;;;2.74;100.00;96846.44;5050832;28;20021;-65
2022/11/07 06:39:21;;;;;;;14.73;10.20;;;;;;;2.85;100.00;96840.47;5051892;28;20048;-65
2022/11/07 06:41:48;;;;;;;16.63;9.43;;;;;;;3.01;100.00;96845.47;5051593;28;20095;-65
2022/11/07 06:44:14;;;;;;;14.18;9.30;;;;;;;3.32;100.00;96842.66;5049346;28;20033;-65
2022/11/07 06:46:39;;;;;;;16.55;9.13;;;;;;;3.26;100.00;96841.22;5050437;28;20453;-65
2022/11/07 06:49:05;;;;;;;16.40;9.68;;;;;;;3.44;100.00;96850.19;5050789;28;20116;-65
2022/11/07 06:51:30;;;;;;;12.10;8.40;;;;;;;3.73;100.00;96852.25;5051617;28;20028;-66
2022/11/07 06:53:56;;;;;;;11.68;8.18;;;;;;;3.87;100.00;96860.25;5033068;28;20032;-65
2022/11/07 06:56:22;;;;;;;11.93;7.60;;;;;;;3.98;100.00;96850.66;5058394;28;20033;-66
2022/11/07 06:58:48;;;;;;;9.57;7.47;;;;;;;4.19;100.00;96867.06;5059967;28;20021;-65
2022/11/07 07:01:13;;;;;;;10.30;7.03;;;;;;;4.40;100.00;96853.63;5059066;28;20052;-66
2022/11/07 07:03:41;;;;;;;11.75;7.35;;;;;;;4.64;100.00;96863.13;5052525;28;20055;-65
2022/11/07 07:06:11;;;;;;;11.40;7.38;;;;;;;4.96;100.00;96863.69;5052528;28;20103;-65
2022/11/07 07:08:36;;;;;;;12.00;6.78;;;;;;;5.40;100.00;96858.81;5052119;28;20044;-66
2022/11/07 07:11:05;;;;;;;9.40;6.85;;;;;;;5.90;100.00;96868.84;5033164;28;20032;-66
2022/11/07 07:13:30;;;;;;;14.80;8.98;;;;;;;6.35;100.00;96872.84;5049947;28;20028;-66
2022/11/07 07:15:56;;;;;;;12.63;7.43;;;;;;;6.73;100.00;96882.69;5050534;28;20036;-66
2022/11/07 07:18:23;;;;;;;10.35;6.95;;;;;;;7.11;100.00;96880.81;5050853;28;20123;-66
2022/11/07 07:20:50;;;;;;;12.82;7.88;;;;;;;7.42;100.00;96889.25;5033091;28;20037;-68
2022/11/07 07:23:17;;;;;;;7.55;5.78;;;;;;;7.76;100.00;96880.91;5032511;28;20036;-66
2022/11/07 07:25:43;;;;;;;10.55;5.47;;;;;;;8.01;100.00;96895.28;5033146;28;20037;-67
2022/11/07 07:28:08;;;;;;;10.65;6.18;;;;;;;8.23;100.00;96900.22;5051401;28;20040;-66
2022/11/07 07:30:34;;;;;;;11.82;5.85;;;;;;;8.07;100.00;96902.09;5051631;28;20366;-66
2022/11/07 07:32:59;;;;;;;11.73;6.50;;;;;;;8.13;100.00;96903.44;5051352;28;20528;-64
2022/11/07 07:35:24;;;;;;;16.05;8.38;;;;;;;8.26;100.00;96901.47;5052243;28;20033;-66
2022/11/07 07:37:51;;;;;;;17.40;10.02;;;;;;;8.53;100.00;96901.84;5049236;28;20029;-66
2022/11/07 07:40:17;;;;;;;18.30;8.55;;;;;;;9.02;100.00;96909.81;5051042;28;20404;-66
2022/11/07 07:42:43;;;;;;;21.85;8.30;;;;;;;9.52;100.00;96907.47;5048748;28;20036;-67
2022/11/07 07:45:10;;;;;;;11.43;7.38;;;;;;;9.98;100.00;96906.97;5049256;28;20455;-66
2022/11/07 07:47:35;;;;;;;10.60;6.80;;;;;;;10.36;95.17;96919.94;5049274;28;20048;-65
2022/11/07 07:50:00;;;;;;;14.70;8.55;;;;;;;10.12;96.19;96907.28;5050618;28;20033;-65
2022/11/07 07:52:26;;;;;;;12.85;7.85;;;;;;;10.58;95.81;96910.19;5039981;28;20147;-67
2022/11/07 07:54:52;;;;;;;12.73;7.18;;;;;;;10.83;93.03;96907.16;5041333;28;20040;-66
2022/11/07 07:57:17;;;;;;;11.15;5.85;;;;;;;11.02;93.12;96906.31;5035747;28;20065;-66
2022/11/07 07:59:42;;;;;;;15.10;5.43;;;;;;;11.86;89.58;96904.53;5030261;28;20069;-67
2022/11/07 08:02:10;;;;;;;11.25;5.20;;;;;;;11.78;87.86;96903.63;5051029;28;20406;-66
2022/11/07 08:04:36;;;;;;;11.98;5.90;;;;;;;12.12;89.40;96911.19;5056957;28;20094;-67
2022/11/07 08:07:01;;;;;;;11.38;6.55;;;;;;;12.40;85.72;96908.03;5051822;28;20521;-66
2022/11/07 08:09:30;;;;;;;8.20;5.05;;;;;;;12.19;85.74;96908.53;5042069;28;20048;-67
2022/11/07 08:11:55;;;;;;;7.32;5.13;;;;;;;13.18;80.50;96919.09;5045879;28;20074;-67
2022/11/07 08:14:20;;;;;;;17.17;5.40;;;;;;;13.11;80.01;96910.78;5043500;28;20047;-67
2022/11/07 08:16:46;;;;;;;10.90;5.00;;;;;;;13.57;79.35;96920.66;5037840;28;20140;-68
2022/11/07 08:19:11;;;;;;;14.73;4.75;;;;;;;13.49;79.91;96919.03;5051469;28;20150;-66
2022/11/07 08:21:37;;;;;;;14.27;4.95;;;;;;;13.56;80.54;96919.88;5049308;28;20045;-66
2022/11/07 08:24:02;;;;;;;11.60;4.07;;;;;;;14.43;77.39;96920.41;5043477;28;20497;-66
2022/11/07 08:26:28;;;;;;;8.98;4.28;;;;;;;14.08;75.84;96916.28;5040045;28;20041;-67
2022/11/07 08:28:53;;;;;;;13.55;5.63;;;;;;;13.33;78.68;96919.28;5044409;28;20039;-67
2022/11/07 08:31:19;;;;;;;7.22;4.20;;;;;;;12.60;80.91;96917.72;5039523;28;20055;-65
2022/11/07 08:33:44;;;;;;;6.38;3.58;;;;;;;13.20;81.12;96918.72;5043192;28;20500;-66
2022/11/07 08:36:10;;;;;;;5.60;3.50;;;;;;;13.96;77.50;96918.19;5038113;28;20045;-64
2022/11/07 08:38:35;;;;;;;10.77;3.55;;;;;;;14.70;71.28;96915.44;5038598;28;20045;-66
2022/11/07 08:41:01;;;;;;;10.30;4.13;;;;;;;13.86;74.89;96907.09;5042540;28;20053;-67
2022/11/07 08:43:27;;;;;;;6.25;4.18;;;;;;;13.12;82.01;96904.09;5038081;28;20052;-65
2022/11/07 08:45:54;;;;;;;4.95;2.97;;;;;;;11.55;89.57;96900.94;5042509;28;20451;-64
2022/11/07 08:48:20;;;;;;;5.72;4.32;;;;;;;11.06;99.56;96899.75;5038838;28;20405;-65
2022/11/07 08:50:51;;;;;;;6.35;4.65;;;;;;;11.07;98.65;96900.53;5044013;28;20037;-67
2022/11/07 08:53:16;;;;;;;9.73;7.18;;;;;;;10.85;100.00;96902.09;5039002;28;20037;-68
2022/11/07 08:55:41;;;;;;;10.82;6.38;;;;;;;10.84;100.00;96901.31;5022173;28;20099;-68
2022/11/07 08:58:07;;;;;;;8.70;5.63;;;;;;;11.49;100.00;96899.66;5037809;28;20466;-68
2022/11/07 09:00:34;;;;;;;7.45;3.67;;;;;;;12.59;96.10;96898.84;5041486;28;20629;-66
2022/11/07 09:03:04;;;;;;;5.38;2.88;;;;;;;13.10;84.95;96906.44;5042459;28;20174;-65
2022/11/07 09:05:30;;;;;;;7.10;3.03;;;;;;;14.36;79.71;96906.59;5042234;28;20049;-67
2022/11/07 09:07:58;;;;;;;5.75;2.22;;;;;;;14.78;69.72;96917.00;5025084;28;20082;-66
2022/11/07 09:10:24;;;;;;;4.43;2.78;;;;;;;15.26;66.65;96907.69;5035244;28;20088;-68
2022/11/07 09:12:51;;;;;;;5.97;3.08;;;;;;;15.92;64.86;96914.78;5042735;28;20067;-67
2022/11/07 09:15:17;;;;;;;3.83;1.90;;;;;;;14.77;66.38;96898.91;5038295;28;20041;-67
2022/11/07 09:17:44;;;;;;;4.63;2.15;;;;;;;15.32;66.34;96910.84;5041379;28;20044;-67
2022/11/07 09:20:10;;;;;;;5.25;2.08;;;;;;;16.91;62.76;96901.09;5038327;28;20045;-65
2022/11/07 09:22:35;;;;;;;11.40;2.85;;;;;;;18.32;56.07;96896.78;5041942;28;20513;-66
2022/11/07 09:25:01;;;;;;;5.65;2.60;;;;;;;18.71;51.75;96905.84;5041082;28;20045;-66
2022/11/07 09:27:26;;;;;;;5.28;3.00;;;;;;;18.31;51.41;96909.09;5037256;28;20429;-65
2022/11/07 09:29:51;;;;;;;8.05;3.80;;;;;;;18.41;51.97;96915.69;5042438;28;20130;-66
2022/11/07 09:32:17;;;;;;;7.55;2.80;;;;;;;19.23;51.39;96905.56;5037886;28;20041;-67
2022/11/07 09:34:45;;;;;;;5.35;3.08;;;;;;;19.65;49.43;96906.09;5043181;28;20061;-66
2022/11/07 09:37:11;;;;;;;6.32;2.50;;;;;;;19.98;49.14;96911.16;5037331;28;20443;-65
2022/11/07 09:39:36;;;;;;;5.63;1.88;;;;;;;19.73;47.29;96904.00;5044636;28;20059;-66
2022/11/07 09:42:19;;;;;;;3.15;1.73;;;;;;;19.48;47.97;96910.75;5042147;28;20037;-62
2022/11/07 09:44:58;;;;;;;3.85;1.92;;;;;;;18.28;52.05;96904.34;5040640;28;20036;-65
2022/11/07 09:47:35;;;;;;;4.25;1.80;;;;;;;18.22;51.30;96905.22;5036453;28;20049;-68
2022/11/07 09:50:41;;;;;;;4.88;1.67;;;;;;;18.32;51.66;96901.53;5040212;28;20040;-66
2022/11/07 09:53:22;;;;;;;3.78;1.90;;;;;;;18.88;50.16;96910.41;5034573;28;20041;-67
2022/11/07 09:55:58;;;;;;;2.90;1.60;;;;;;;19.46;48.37;96906.81;5041570;28;20037;-67
2022/11/07 09:58:35;;;;;;;5.97;2.00;;;;;;;18.13;49.60;96906.50;5035606;28;20067;-66
2022/11/07 10:01:10;;;;;;;4.85;2.00;;;;;;;18.97;49.71;96898.00;5024891;28;20037;-67
2022/11/07 10:03:36;;;;;;;3.03;1.75;;;;;;;18.92;48.46;96910.34;5042215;28;20112;-65
2022/11/07 10:06:25;;;;;;;4.75;1.67;;;;;;;17.87;51.37;96909.91;5039914;28;20040;-63
2022/11/07 10:09:13;;;;;;;3.03;1.65;;;;;;;18.98;50.01;96903.16;5039977;28;20041;-65
2022/11/07 10:11:44;;;;;;;3.75;1.35;;;;;;;19.45;47.49;96910.81;5041567;28;20041;-67
2022/11/07 10:14:30;;;;;;;7.55;1.92;;;;;;;19.64;47.80;96909.28;5035428;28;20037;-64
2022/11/07 10:17:14;;;;;;;12.98;2.20;;;;;;;18.61;49.74;96902.00;5036478;28;20037;-67
2022/11/07 10:20:04;;;;;;;3.40;1.42;;;;;;;19.00;48.93;96917.38;5040864;28;20053;-66
2022/11/07 10:22:32;;;;;;;7.97;1.88;;;;;;;17.51;51.76;96916.50;5042238;28;20571;-67
2022/11/07 10:25:09;;;;;;;6.50;1.52;;;;;;;17.95;51.97;96914.19;5047537;28;20055;-64
2022/11/07 10:27:37;;;;;;;3.80;1.60;;;;;;;18.21;51.67;96918.28;5022208;28;20116;-66
2022/11/07 10:30:15;;;;;;;11.48;1.98;;;;;;;18.46;50.48;96918.03;5039118;28;20826;-62
2022/11/07 10:32:55;;;;;;;4.88;2.10;;;;;;;18.65;50.17;96911.03;5023628;28;20440;-65
2022/11/07 10:35:32;;;;;;;3.30;1.45;;;;;;;18.67;49.39;96919.75;5034980;28;20124;-66
2022/11/07 10:38:01;;;;;;;6.35;1.83;;;;;;;18.26;51.18;96912.31;5040341;28;20037;-66
2022/11/07 10:40:34;;;;;;;10.63;2.13;;;;;;;18.00;50.78;96912.97;5036306;28;20493;-66
2022/11/07 10:43:02;;;;;;;7.43;1.85;;;;;;;18.45;51.15;96905.34;5041410;28;20053;-65
2022/11/07 10:45:28;;;;;;;3.78;1.60;;;;;;;17.64;52.87;96904.94;5037462;28;20041;-66
2022/11/07 10:48:03;;;;;;;2.97;1.35;;;;;;;18.24;52.76;96900.03;5039644;28;20037;-64
2022/11/07 10:50:29;;;;;;;5.53;1.55;;;;;;;18.88;50.17;96898.50;5038307;28;20047;-65
2022/11/07 10:53:04;;;;;;;2.58;1.13;;;;;;;18.17;50.26;96894.56;5039987;28;20144;-66
2022/11/07 10:55:40;;;;;;;5.38;1.70;;;;;;;18.25;48.78;96885.75;5038419;28;20047;-64
2022/11/07 10:58:06;;;;;;;3.92;1.45;;;;;;;17.42;50.70;96894.03;5031749;28;20053;-66
2022/11/07 11:00:35;;;;;;;3.47;1.30;;;;;;;17.83;51.42;96890.53;5040518;28;20047;-65
2022/11/07 11:03:01;;;;;;;8.13;1.30;;;;;;;18.12;49.29;96888.28;5041725;28;20044;-65
2022/11/07 11:05:39;;;;;;;3.90;1.15;;;;;;;17.93;50.80;96884.13;5035185;28;20045;-65
2022/11/07 11:08:15;;;;;;;4.22;1.50;;;;;;;17.82;50.28;96883.41;5032193;28;20041;-61
2022/11/07 11:10:41;;;;;;;2.75;1.20;;;;;;;17.94;49.39;96879.38;5038887;28;20083;-66
2022/11/07 11:13:24;;;;;;;4.07;1.20;;;;;;;17.64;50.49;96877.25;5038862;28;20040;-66
2022/11/07 11:15:49;;;;;;;3.70;1.73;;;;;;;18.25;49.84;96871.91;5049000;28;20025;-66
2022/11/07 11:18:16;;;;;;;4.55;1.20;;;;;;;18.58;48.26;96874.28;5041943;28;20041;-65
2022/11/07 11:20:52;;;;;;;3.08;1.15;;;;;;;18.42;49.07;96872.09;5044011;28;20052;-66
2022/11/07 11:23:21;;;;;;;5.75;1.52;;;;;;;18.78;47.95;96868.88;5035740;28;20123;-66
2022/11/07 11:25:49;;;;;;;3.78;1.42;;;;;;;18.70;48.22;96857.09;5042610;28;20041;-66
2022/11/07 11:28:24;;;;;;;6.43;1.50;;;;;;;18.51;49.29;96869.63;5035424;28;20084;-65
2022/11/07 11:30:55;;;;;;;3.58;1.60;;;;;;;18.49;49.04;96853.41;5039896;28;20098;-65
2022/11/07 11:33:28;;;;;;;5.03;1.63;;;;;;;19.10;47.86;96862.91;5037291;28;20130;-66
2022/11/07 11:36:30;;;;;;;2.40;1.20;;;;;;;19.78;44.74;96858.28;5038007;28;20033;-67
2022/11/07 11:38:55;;;;;;;3.05;1.05;;;;;;;19.91;44.98;96845.34;4987839;28;20473;-66